Weather Search – Historical Data

Quick picks

Today Yesterday Last 7 days Last 30 days This month Last month Last year (same date) All of last year

Custom search

Database contains data from 2013-07-07 to 2026-09-06.

Sunday September 6, 2026

109 measurements (5-min interval)

Max temperature
12,2 Β°C
09:00
Min temperature
11,1 Β°C
08:10
Avg temperature
11,6 Β°C
Total rainfall
2,8 mm
Max wind gust
4,0 m/s
W Β· 00:35
Avg wind
0,2 m/s
Avg humidity
95 %
Avg pressure
1 015 hPa
Max UV index
0,7
08:55
Max solar radiation
232 W/mΒ²
09:00
Avg radiation (daytime)
59 W/mΒ²

Charts

Temperature and dew point
Wind and gusts
Wind rose Β· prevailing: W
Rainfall
Humidity
Air pressure
UV and solar radiation

Detailed data

TimeTemp Β°CDew Β°C Humid %Wind m/sGust m/s Dir Β°Rain mmPress. hPa UVSolar W/mΒ²
00:00 12,111,0 930,0 0,4– 0,001 012,9 0,00
00:05 12,111,0 930,0 0,9– 0,001 012,9 0,00
00:10 12,111,0 930,0 0,0– 0,001 012,9 0,00
00:15 12,010,9 930,0 0,0– 0,001 013,0 0,00
00:20 12,010,9 930,0 0,0– 0,001 013,0 0,00
00:25 12,010,9 930,0 0,0– 0,001 013,0 0,00
00:30 12,010,9 930,0 0,0– 0,001 013,2 0,00
00:35 12,010,9 931,3 4,0293 0,001 013,2 0,00
00:40 12,010,9 930,4 1,3293 0,001 013,2 0,00
00:45 12,010,9 930,0 1,3– 0,001 013,4 0,00
00:50 12,010,9 930,0 0,9– 0,001 013,4 0,00
00:55 11,910,8 930,4 0,9293 0,001 013,4 0,00
01:00 11,910,8 930,0 0,9– 0,001 013,6 0,00
01:05 11,810,7 930,4 1,3293 0,001 013,6 0,00
01:10 11,810,7 930,0 0,9– 0,001 013,6 0,00
01:15 11,710,8 940,0 0,4– 0,001 014,0 0,00
01:20 11,710,8 940,0 0,0– 0,001 014,0 0,00
01:25 11,710,7 940,0 0,0– 0,001 014,0 0,00
01:30 11,610,7 940,0 0,0– 0,001 014,1 0,00
01:35 11,610,7 940,0 0,0– 0,001 014,1 0,00
01:40 11,710,7 940,0 0,0– 0,251 014,1 0,00
01:45 11,610,7 940,0 0,0– 0,001 014,1 0,00
01:50 11,610,6 940,0 0,0– 0,001 014,1 0,00
01:55 11,610,7 940,0 0,0– 0,001 014,1 0,00
02:00 11,610,7 940,0 0,0– 0,001 014,2 0,00
02:05 11,610,7 940,0 0,0– 0,001 014,2 0,00
02:10 11,510,6 940,0 0,0– 0,001 014,2 0,00
02:15 11,510,7 950,4 0,9293 0,001 014,5 0,00
02:20 11,510,7 950,0 0,0– 0,001 014,5 0,00
02:25 11,610,8 950,0 0,0– 0,001 014,5 0,00
02:30 11,610,7 940,0 0,0– 0,001 014,6 0,00
02:35 11,610,8 950,0 0,0– 0,001 014,6 0,00
02:40 11,610,8 950,0 0,0– 0,001 014,6 0,00
02:45 11,610,8 950,0 0,0– 0,001 014,6 0,00
02:50 11,610,8 950,0 0,0– 0,251 014,6 0,00
02:55 11,610,8 950,0 0,0– 1,021 014,6 0,00
03:00 11,610,8 950,0 0,9– 0,251 014,6 0,00
03:05 11,610,8 950,0 0,9– 0,251 014,6 0,00
03:10 11,610,8 950,4 2,2270 0,001 014,6 0,00
03:15 11,610,8 950,9 1,8270 0,251 014,8 0,00
03:20 11,710,9 950,4 1,3270 0,001 014,8 0,00
03:25 11,710,9 950,0 0,0– 0,001 014,8 0,00
03:30 11,610,8 950,0 0,0– 0,001 014,9 0,00
03:35 11,610,8 950,0 0,0– 0,001 014,9 0,00
03:40 11,610,8 950,0 0,4– 0,001 014,9 0,00
03:45 11,610,8 950,0 0,0– 0,001 015,1 0,00
03:50 11,610,8 950,0 0,0– 0,001 015,1 0,00
03:55 11,610,8 950,0 0,0– 0,001 015,1 0,00
04:00 11,610,8 950,0 0,0– 0,001 015,1 0,00
04:05 11,610,8 950,0 0,0– 0,001 015,1 0,00
04:10 11,610,8 950,0 0,0– 0,001 015,1 0,00
04:15 11,610,8 950,0 0,0– 0,001 015,1 0,00
04:20 11,610,8 950,0 0,0– 0,001 015,1 0,00
04:25 11,510,7 950,0 0,0– 0,001 015,1 0,00
04:30 11,410,6 950,0 0,0– 0,001 015,1 0,00
04:35 11,310,6 950,0 0,0– 0,001 015,1 0,00
04:40 11,410,7 950,0 0,0– 0,001 015,1 0,00
04:45 11,610,8 950,0 0,0– 0,001 015,3 0,00
04:50 11,510,7 950,0 0,0– 0,001 015,3 0,00
04:55 11,410,7 950,4 1,3270 0,001 015,3 0,00
05:00 11,410,7 950,4 1,3270 0,001 015,2 0,00
05:05 11,510,7 950,0 0,0– 0,001 015,2 0,00
05:10 11,610,8 950,0 0,0– 0,001 015,2 0,00
05:15 11,610,8 950,0 0,0– 0,001 015,3 0,00
05:20 11,610,8 950,0 0,0– 0,001 015,3 0,00
05:25 11,610,8 950,0 0,0– 0,001 015,3 0,00
05:30 11,610,8 950,0 0,0– 0,001 015,4 0,00
05:35 11,610,8 950,0 0,0– 0,001 015,4 0,00
05:40 11,610,8 950,0 0,0– 0,001 015,4 0,00
05:45 11,610,8 950,0 0,0– 0,001 015,3 0,00
05:50 11,410,7 950,0 0,0– 0,001 015,3 0,00
05:55 11,410,6 950,4 0,9270 0,001 015,3 0,00
06:00 11,410,6 950,9 1,3270 0,001 015,5 0,00
06:05 11,410,6 950,0 0,4– 0,001 015,5 0,00
06:10 11,410,8 960,0 0,9– 0,001 015,5 0,00
06:15 11,310,6 950,4 1,3270 0,001 015,5 0,00
06:20 11,310,7 960,4 1,3270 0,001 015,5 0,00
06:25 11,310,7 960,0 0,9– 0,001 015,5 0,00
06:30 11,310,7 960,4 1,8270 0,001 015,3 0,00
06:35 11,310,7 961,3 1,8270 0,001 015,3 0,00
06:40 11,310,7 961,3 2,2270 0,001 015,3 0,00
06:45 11,310,7 960,9 1,8270 0,001 015,5 0,00
06:50 11,310,7 960,4 1,3270 0,001 015,5 0,00
06:55 11,310,7 961,3 1,8270 0,001 015,5 0,03
07:00 11,310,7 960,9 1,8270 0,001 015,6 0,05
07:05 11,310,7 960,9 1,3270 0,001 015,6 0,06
07:10 11,410,8 960,9 1,3270 0,001 015,6 0,011
07:15 11,410,8 960,9 1,3270 0,001 015,6 0,013
07:20 11,510,9 960,9 1,3270 0,001 015,6 0,013
07:25 11,510,9 960,4 0,9270 0,001 015,6 0,011
07:30 11,510,9 960,0 0,9– 0,001 015,7 0,011
07:35 11,610,9 960,4 1,8270 0,251 015,7 0,08
07:40 11,611,0 960,9 3,1270 0,001 015,7 0,07
07:45 11,610,9 960,4 3,1270 0,251 016,0 0,012
07:50 11,510,9 960,4 1,3270 0,001 016,0 0,021
07:55 11,410,7 950,9 2,7315 0,001 016,0 0,031
08:00 11,310,5 950,9 2,2315 0,001 015,8 0,030
08:05 11,210,6 960,0 0,9– 0,001 015,8 0,028
08:10 11,110,3 950,4 0,9315 0,001 015,8 0,037
08:15 11,110,5 960,0 0,0– 0,001 016,0 0,260
08:20 11,210,5 950,0 0,0– 0,001 016,0 0,580
08:25 11,210,6 960,0 0,0– 0,001 016,0 0,566
08:30 11,210,6 960,0 0,0– 0,001 016,2 0,575
08:35 11,310,6 950,0 0,0– 0,001 016,2 0,6114
08:40 11,410,7 950,0 0,4– 0,001 016,2 0,6151
08:45 11,811,0 950,0 0,0– 0,001 016,2 0,6194
08:50 11,811,0 950,0 0,0– 0,001 016,2 0,6142
08:55 12,011,2 950,0 0,0– 0,001 016,2 0,7169
09:00 12,211,4 950,0 0,0– 0,001 016,4 0,7232